createdAt,value
2022-08-11T00:02:24.931Z,349.26316
2022-08-11T00:07:26.676Z,273.41176
2022-08-11T00:12:28.263Z,284.33149
2022-08-11T00:17:29.854Z,344
2022-08-11T00:22:31.545Z,306.35294
2022-08-11T00:27:33.158Z,276.97297
2022-08-11T00:32:34.786Z,226.56881
2022-08-11T00:37:36.397Z,258.28571
2022-08-11T00:42:38.456Z,179.1145
2022-08-11T00:47:40.233Z,195.42857
2022-08-11T00:52:41.911Z,215.36564
2022-08-11T00:57:43.502Z,247.44828
2022-08-11T01:02:45.299Z,229.18519
2022-08-11T01:08:01.063Z,296
2022-08-11T01:13:04.725Z,180.01533
2022-08-11T01:18:10.313Z,181.83784
2022-08-11T01:23:12.579Z,129.54217
2022-08-11T01:28:17.481Z,108.26667
2022-08-11T01:33:19.082Z,144
2022-08-11T01:38:20.691Z,127.8806
2022-08-11T01:43:22.277Z,120.5043
2022-08-11T01:48:24.032Z,131.80488
2022-08-11T01:53:25.819Z,152.81356
2022-08-11T01:58:34.298Z,137.71069
2022-08-11T02:03:45.948Z,132.95706
2022-08-11T02:08:50.806Z,109.5914
2022-08-11T02:13:52.599Z,129.54217
2022-08-11T02:18:54.896Z,143.35275
2022-08-11T02:24:05.475Z,173.85075
2022-08-11T02:29:09.288Z,155.68385
2022-08-11T02:34:10.883Z,148.65116
2022-08-11T02:39:12.721Z,190.4
2022-08-11T02:44:14.313Z,143.35275
2022-08-11T02:49:15.968Z,113.69697
2022-08-11T02:54:17.597Z,86.92343
2022-08-11T02:59:19.169Z,65.9802
2022-08-11T03:04:20.968Z,72.60125
2022-08-11T03:09:22.695Z,91.36842
2022-08-11T03:14:24.466Z,82.73874
2022-08-11T03:19:28.263Z,136.5
2022-08-11T03:24:29.863Z,120
2022-08-11T03:29:31.543Z,108.26667
2022-08-11T03:34:33.144Z,278.78261
2022-08-11T03:39:34.809Z,215.36564
2022-08-11T03:44:36.431Z,211.82609
2022-08-11T03:49:38.063Z,250.46766
2022-08-11T03:54:39.722Z,175.57895
2022-08-11T03:59:41.436Z,158.63415
2022-08-11T04:04:49.904Z,134.71207
2022-08-11T04:09:53.239Z,201.74059
2022-08-11T04:14:54.835Z,138.93671
2022-08-11T04:19:56.468Z,163.21708
2022-08-11T04:24:58.073Z,167.18841
2022-08-11T04:30:03.878Z,175.57895
2022-08-11T04:35:07.515Z,125.17647
2022-08-11T04:40:09.109Z,131.80488
2022-08-11T04:45:10.845Z,107.39523
2022-08-11T04:50:12.685Z,110.03774
2022-08-11T04:55:14.304Z,134.71207
2022-08-11T05:00:15.988Z,172.14815
2022-08-11T05:05:17.796Z,145.30719
2022-08-11T05:10:19.428Z,167.18841
2022-08-11T05:15:21.042Z,188.44444
2022-08-11T05:20:22.866Z,140.17834
2022-08-11T05:26:47.639Z,113.23077
2022-08-11T05:31:50.723Z,132.3792
2022-08-11T05:36:52.402Z,105.67979
2022-08-11T05:41:54.165Z,98.77387
2022-08-11T05:46:55.779Z,99.16373
2022-08-11T05:51:57.396Z,110.93767
2022-08-11T05:57:07.759Z,100.743
2022-08-11T06:02:09.371Z,108.26667
2022-08-11T06:07:10.962Z,91.36842
2022-08-11T06:12:12.709Z,86.59259
2022-08-11T06:17:14.311Z,91.72182
2022-08-11T06:22:15.925Z,100.743
2022-08-11T06:27:17.543Z,138.93671
2022-08-11T06:32:19.109Z,104
2022-08-11T06:37:20.723Z,103.17313
2022-08-11T06:42:22.476Z,125.17647
2022-08-11T06:47:24.062Z,102.76289
2022-08-11T06:52:34.700Z,99.55556
2022-08-11T06:57:37.176Z,136.5
2022-08-11T07:02:38.796Z,142.70968
2022-08-11T07:07:40.460Z,157.14879
2022-08-11T07:12:42.073Z,161.66784
2022-08-11T07:17:43.664Z,127.33333
2022-08-11T07:22:45.305Z,140.17834
2022-08-11T07:27:46.921Z,130.10272
2022-08-11T07:32:48.590Z,91.01671
2022-08-11T07:37:50.212Z,96.09877
2022-08-11T07:43:03.439Z,84.9611
2022-08-11T07:48:05.020Z,80.28319
2022-08-11T07:53:06.676Z,83.05192
2022-08-11T07:58:15.905Z,73.41176
2022-08-11T08:03:21.700Z,83.68254
2022-08-11T08:08:23.334Z,83.68254
2022-08-11T08:13:24.932Z,80.28319
2022-08-11T08:18:27.817Z,80.58537
2022-08-11T08:23:29.627Z,98.38596
2022-08-11T08:28:32.638Z,78.79212
2022-08-11T08:33:34.500Z,73.68421
2022-08-11T08:38:36.105Z,74.23256
2022-08-11T08:43:48.446Z,77.04536
2022-08-11T08:48:53.120Z,80.88889
2022-08-11T08:53:58.510Z,74.78556
2022-08-11T08:59:00.389Z,74.23256
2022-08-11T09:04:10.588Z,77.91304
2022-08-11T09:09:13.269Z,83.36652
2022-08-11T09:14:15.319Z,79.98234
2022-08-11T09:19:17.048Z,84.63927
2022-08-11T09:24:25.793Z,85.93548
2022-08-11T09:29:28.189Z,86.92343
2022-08-11T09:34:29.841Z,105.67979
2022-08-11T09:39:31.568Z,95.72414
2022-08-11T09:44:33.163Z,77.91304
2022-08-11T09:49:35.862Z,82.73874
2022-08-11T09:54:37.393Z,87.25581
2022-08-11T09:59:38.987Z,88.60094
2022-08-11T10:04:40.571Z,90.66667
2022-08-11T10:09:42.172Z,84.63927
2022-08-11T10:14:44.993Z,85.2844
2022-08-11T10:19:48.778Z,79.98234
2022-08-11T10:25:06.360Z,76.75862
2022-08-11T10:30:08.009Z,68.69636
2022-08-11T10:35:09.800Z,69.45825
2022-08-11T10:40:11.490Z,63.84436
2022-08-11T10:45:13.100Z,65.25984
2022-08-11T10:50:14.739Z,65.25984
2022-08-11T10:55:16.313Z,61.11027
2022-08-11T11:00:17.925Z,62.23417
2022-08-11T11:05:19.560Z,61.33333
2022-08-11T11:10:21.170Z,58.92537
2022-08-11T11:15:22.767Z,58.71136
2022-08-11T11:20:36.101Z,60.00753
2022-08-11T11:25:42.729Z,58.71136
2022-08-11T11:30:44.547Z,58.71136
2022-08-11T11:35:46.222Z,58.92537
2022-08-11T11:40:47.797Z,60.00753
2022-08-11T11:45:49.412Z,64.3125
2022-08-11T11:50:52.213Z,66.22222
2022-08-11T11:55:55.336Z,62.68979
2022-08-11T12:00:56.974Z,60.22642
2022-08-11T12:05:58.649Z,59.14019
2022-08-11T12:11:00.264Z,62.00766
2022-08-11T12:16:31.290Z,68.69636
2022-08-11T12:21:36.786Z,65.02161
2022-08-11T12:26:38.408Z,60.88805
2022-08-11T12:31:40.021Z,59.14019
2022-08-11T12:36:41.651Z,60.00753
2022-08-11T12:41:43.301Z,62.46154
2022-08-11T12:46:45.001Z,60.66667
2022-08-11T12:52:12.925Z,60.00753
2022-08-11T12:57:15.928Z,61.78203
2022-08-11T13:02:29.223Z,59.14019
2022-08-11T13:07:37.175Z,56.40876
2022-08-11T13:12:52.663Z,57.23529
2022-08-11T13:17:54.272Z,56.61426
2022-08-11T13:22:55.856Z,69.71429
2022-08-11T13:27:57.482Z,71.80083
2022-08-11T13:33:01.807Z,81.19376
2022-08-11T13:38:18.504Z,83.68254
2022-08-11T13:43:21.851Z,70.22951
2022-08-11T13:48:23.457Z,66.22222
2022-08-11T13:53:25.070Z,62.91892
2022-08-11T13:58:40.371Z,74.23256
2022-08-11T14:04:30.982Z,80.28319
2022-08-11T14:09:33.761Z,72.60125
2022-08-11T14:14:35.345Z,61.11027
2022-08-11T14:19:36.984Z,63.37984
2022-08-11T14:24:38.607Z,66.95409
2022-08-11T14:29:43.192Z,65.9802
2022-08-11T14:34:50.474Z,66.95409
2022-08-11T14:39:52.151Z,77.33333
2022-08-11T14:44:55.255Z,84
2022-08-11T14:49:58.614Z,94.2439
2022-08-11T14:55:12.179Z,81.5
2022-08-11T15:00:13.835Z,93.15254
2022-08-11T15:05:15.458Z,104.41667
2022-08-11T15:10:17.436Z,112.76712
2022-08-11T15:15:19.096Z,121.52161
2022-08-11T15:20:20.773Z,128.98498
2022-08-11T15:25:22.390Z,132.95706
2022-08-11T15:30:33.081Z,126.78932
2022-08-11T15:35:39.485Z,121.01149
2022-08-11T15:40:41.426Z,132.3792
2022-08-11T15:45:45.067Z,130.66667
2022-08-11T15:50:46.674Z,146.63158
2022-08-11T15:55:48.838Z,145.30719
2022-08-11T16:00:57.994Z,135.90031
2022-08-11T16:06:05.318Z,154.9589
2022-08-11T16:11:08.887Z,127.8806
2022-08-11T16:16:10.592Z,148.65116
2022-08-11T16:21:33.643Z,160.90141
2022-08-11T16:27:10.811Z,171.30627
2022-08-11T16:32:14.918Z,172.99628
2022-08-11T16:37:16.526Z,171.30627
2022-08-11T16:43:06.373Z,158.63415
2022-08-11T16:48:34.956Z,169.64103
2022-08-11T16:53:59.542Z,188.44444
2022-08-11T16:59:06.533Z,200.66667
2022-08-11T17:04:08.243Z,201.74059
2022-08-11T17:09:09.878Z,212.99563
2022-08-11T17:14:11.474Z,214.17544
2022-08-11T17:19:13.098Z,210.66667
2022-08-11T17:24:14.710Z,235.94313
2022-08-11T17:29:16.336Z,245.96078
2022-08-11T17:34:18.011Z,245.96078
2022-08-11T17:39:19.626Z,256.69036
2022-08-11T17:44:21.287Z,250.46766
2022-08-11T17:49:22.949Z,244.4878
2022-08-11T17:54:25.407Z,261.52577
2022-08-11T17:59:32.390Z,258.28571
2022-08-11T18:04:34.179Z,292.0226
2022-08-11T18:09:35.871Z,269.92593
2022-08-11T18:14:37.464Z,222.73303
2022-08-11T18:19:39.121Z,240.15385
2022-08-11T18:24:40.747Z,237.33333
2022-08-11T18:29:42.505Z,237.33333
2022-08-11T18:34:48.230Z,247.44828
2022-08-11T18:39:54.649Z,269.92593
2022-08-11T18:44:58.361Z,255.11111
2022-08-11T18:50:02.592Z,264.83333
2022-08-11T18:55:05.816Z,258.28571
2022-08-11T19:00:12.027Z,300.06936
2022-08-11T19:05:13.592Z,331.42138
2022-08-11T19:10:15.239Z,304.23392
2022-08-11T19:15:16.825Z,346.61438
2022-08-11T19:20:18.414Z,346.61438
2022-08-11T19:25:25.153Z,377.80282
2022-08-11T19:30:27.269Z,410.66667
2022-08-11T19:35:28.912Z,414.22901
2022-08-11T19:40:30.544Z,414.22901
2022-08-11T19:45:32.173Z,390.37681
2022-08-11T19:50:33.858Z,354.66667
2022-08-11T19:55:40.369Z,374.76923
2022-08-11T20:00:42.099Z,407.15789
2022-08-11T20:05:55.595Z,407.15789
2022-08-11T20:11:01.516Z,393.63504
2022-08-11T20:16:03.166Z,331.42138
2022-08-11T20:21:04.797Z,360.21622
2022-08-11T20:26:31.183Z,371.77778
2022-08-11T20:31:33.468Z,363.04762
2022-08-11T20:36:35.078Z,400.2963
2022-08-11T20:41:58.419Z,365.91781
2022-08-11T20:47:01.244Z,371.77778
2022-08-11T20:52:06.012Z,341.41935
2022-08-11T20:57:12.664Z,269.92593
2022-08-11T21:02:14.753Z,209.51724
2022-08-11T21:07:28.552Z,203.91561
2022-08-11T21:12:30.772Z,179.1145
2022-08-11T21:17:33.083Z,186.51969
2022-08-11T21:22:34.720Z,200.66667
2022-08-11T21:27:36.310Z,203.91561
2022-08-11T21:32:37.989Z,255.11111
2022-08-11T21:37:39.643Z,205.01695
2022-08-11T21:42:43.075Z,226.56881
2022-08-11T21:47:44.679Z,238.73684
2022-08-11T21:52:46.297Z,255.11111
2022-08-11T21:57:50.236Z,259.89744
2022-08-11T22:02:53.417Z,203.91561
2022-08-11T22:07:55.440Z,178.22053
2022-08-11T22:12:57.037Z,123.06977
2022-08-11T22:17:58.707Z,129.54217
2022-08-11T22:23:00.333Z,171.30627
2022-08-11T22:28:02.649Z,176.45283
2022-08-11T22:33:04.268Z,146.63158
2022-08-11T22:38:05.942Z,129.54217
2022-08-11T22:43:07.523Z,186.51969
2022-08-11T22:48:09.164Z,170.47059
2022-08-11T22:53:10.793Z,167.18841
2022-08-11T22:58:12.457Z,185.56863
2022-08-11T23:03:14.067Z,185.56863
2022-08-11T23:08:39.701Z,198.54545
2022-08-11T23:13:41.315Z,247.44828
2022-08-11T23:18:42.921Z,253.54774
2022-08-11T23:23:44.921Z,276.97297
2022-08-11T23:28:46.578Z,317.33333
2022-08-11T23:33:48.153Z,255.11111
2022-08-11T23:38:49.789Z,317.33333
2022-08-11T23:43:51.415Z,308.49704
2022-08-11T23:48:53.070Z,194.4065
2022-08-11T23:53:54.670Z,176.45283
2022-08-11T23:58:56.309Z,148.65116
